MMLM/LMM METAR and TAF weather

Enter ICAO airport designator
Station Type Date Time Source
MMLM METAR 2020/11/25 21:42 UTC NOAA

MMLM 252142Z 30015KT 10SM SKC 27/09 A2996 RMK HZY ISOL CI


Station Type Date Time Source
MMLM Decoded METAR 2020/11/25 21:42 UTC NOAA

Los Mochis Airport, Mexico (MMLM) 25-41N 109-05W
Nov 25, 2020 - 04:42 PM EST / 2020.11.25 2142 UTC
Wind: from the WNW (300 degrees) at 17 MPH (15 KT):0
Visibility: 10 mile(s):0
Sky conditions: clear
Temperature: 80 F (27 C)
Dew Point: 48 F (9 C)
Relative Humidity: 32%
Pressure (altimeter): 29.96 in. Hg (1014 hPa)
ob: MMLM 252142Z 30015KT 10SM SKC 27/09 A2996 RMK HZY ISOL CI
cycle: 21

Station Type Date Time Source
MMLM TAF 2020/11/25 18:45 UTC NOAA

TAF MMLM 251641Z 2518/2618 26015KT P6SM SCT100 SCT250
BECMG 2602/2603 30006KT SCT100 BKN250
FM261700 32010KT P6SM BKN250

Example: see airport list